Time;durP1;ratioP1;P1;durP2;ratioP2;P2;SDS_P1;SDS_P2;PMS_P1;PMS_P2;Temp;Humidity;BMP_temperature;BMP_pressure;BME280_temperature;BME280_humidity;BME280_pressure;Samples;Min_cycle;Max_cycle;Signal;HPM_P1;HPM_P2
2021/06/20 00:00:23;;;;;;;9.57;7.32;;;20.90;97.90;;;;;;5069341;28;20060;-79
2021/06/20 00:02:52;;;;;;;12.43;9.35;;;20.90;98.30;;;;;;5051251;28;20051;-78
2021/06/20 00:05:28;;;;;;;10.13;9.07;;;20.60;98.90;;;;;;5068927;28;20067;-79
2021/06/20 00:08:00;;;;;;;10.13;9.18;;;20.20;99.70;;;;;;5049404;28;20051;-78
2021/06/20 00:10:30;;;;;;;9.00;8.02;;;20.00;99.90;;;;;;5048620;28;20037;-78
2021/06/20 00:12:59;;;;;;;11.23;9.93;;;19.80;99.90;;;;;;5049490;28;20052;-79
2021/06/20 00:15:28;;;;;;;10.07;9.15;;;19.60;99.90;;;;;;5051704;28;20049;-78
2021/06/20 00:17:56;;;;;;;8.93;8.02;;;19.60;99.90;;;;;;5069095;28;20036;-78
2021/06/20 00:20:28;;;;;;;9.27;8.48;;;19.50;99.90;;;;;;5067996;28;20056;-78
2021/06/20 00:22:56;;;;;;;8.43;7.72;;;19.50;99.90;;;;;;5067948;28;20045;-78
2021/06/20 00:25:24;;;;;;;8.27;7.50;;;19.50;99.90;;;;;;5051051;28;20052;-78
2021/06/20 00:27:52;;;;;;;10.63;9.63;;;19.50;99.90;;;;;;5067951;28;20540;-78
2021/06/20 00:30:23;;;;;;;8.88;7.88;;;19.60;99.90;;;;;;5050312;28;20040;-80
2021/06/20 00:32:51;;;;;;;12.25;7.90;;;19.60;99.90;;;;;;5051127;28;20397;-79
2021/06/20 00:35:19;;;;;;;9.45;8.63;;;19.40;99.90;;;;;;5067724;28;20044;-78
2021/06/20 00:37:50;;;;;;;11.93;9.87;;;19.30;99.90;;;;;;5067450;28;20032;-78
2021/06/20 00:40:19;;;;;;;10.98;9.88;;;19.20;99.90;;;;;;5068542;28;20229;-78
2021/06/20 00:42:47;;;;;;;14.70;12.73;;;19.20;99.90;;;;;;5069824;28;20055;-77
2021/06/20 00:45:18;;;;;;;15.65;14.05;;;19.10;99.90;;;;;;5070200;28;20481;-77
2021/06/20 00:47:46;;;;;;;11.50;10.38;;;19.20;99.90;;;;;;5070009;28;20047;-78
2021/06/20 00:50:15;;;;;;;15.90;9.38;;;19.20;99.90;;;;;;5069242;28;20064;-77
2021/06/20 00:52:43;;;;;;;10.30;9.27;;;19.20;99.90;;;;;;5052342;28;20053;-77
2021/06/20 00:55:12;;;;;;;8.73;7.93;;;19.40;99.90;;;;;;5068784;28;20048;-78
2021/06/20 00:57:41;;;;;;;10.35;9.25;;;19.70;99.90;;;;;;5069996;28;20060;-81
2021/06/20 01:00:11;;;;;;;8.65;8.02;;;19.90;99.90;;;;;;5052737;28;20059;-82
2021/06/20 01:02:39;;;;;;;9.80;8.40;;;20.00;99.90;;;;;;5051420;28;20044;-81
2021/06/20 01:05:09;;;;;;;9.60;8.70;;;19.70;99.90;;;;;;5067869;28;20059;-88
2021/06/20 01:07:38;;;;;;;10.82;9.68;;;19.40;99.90;;;;;;5031647;28;20040;-88
2021/06/20 01:10:07;;;;;;;12.50;10.90;;;19.20;99.90;;;;;;5049386;28;20603;-87
2021/06/20 01:12:36;;;;;;;10.95;7.85;;;19.00;99.90;;;;;;5034560;28;20055;-87
2021/06/20 01:15:07;;;;;;;11.40;8.90;;;18.90;99.90;;;;;;5049562;28;20041;-87
2021/06/20 01:17:36;;;;;;;11.18;10.18;;;18.80;99.90;;;;;;5067138;28;20067;-87
2021/06/20 01:20:09;;;;;;;11.80;10.70;;;18.80;99.90;;;;;;5050073;28;20397;-84
2021/06/20 01:22:38;;;;;;;13.10;10.93;;;18.80;99.90;;;;;;5048742;28;20043;-84
2021/06/20 01:25:14;;;;;;;11.02;9.93;;;18.80;99.90;;;;;;5050105;28;20067;-84
2021/06/20 01:27:46;;;;;;;10.85;9.85;;;18.80;99.90;;;;;;5066183;28;20032;-84
2021/06/20 01:30:18;;;;;;;11.05;9.52;;;18.80;99.90;;;;;;5047050;28;20056;-84
2021/06/20 01:32:46;;;;;;;11.35;10.35;;;18.80;99.90;;;;;;5048464;28;20041;-84
2021/06/20 01:35:15;;;;;;;9.57;8.70;;;18.80;99.90;;;;;;5047853;28;20080;-84
2021/06/20 01:37:44;;;;;;;10.25;9.35;;;18.90;99.90;;;;;;5060927;28;20080;-84
2021/06/20 01:40:14;;;;;;;10.43;9.40;;;18.90;99.90;;;;;;5068070;28;20048;-84
2021/06/20 01:42:43;;;;;;;10.35;9.48;;;18.90;99.90;;;;;;5033108;28;20051;-85
2021/06/20 01:45:12;;;;;;;15.35;11.90;;;18.90;99.90;;;;;;5067519;28;20524;-84
2021/06/20 01:47:40;;;;;;;9.30;8.50;;;18.90;99.90;;;;;;5067020;28;20049;-84
2021/06/20 01:50:11;;;;;;;11.70;8.52;;;18.80;99.90;;;;;;5048764;28;20048;-84
2021/06/20 01:52:40;;;;;;;10.82;9.82;;;18.70;99.90;;;;;;5048341;28;20048;-84
2021/06/20 01:55:09;;;;;;;12.45;11.10;;;18.60;99.90;;;;;;5049952;28;20044;-85
2021/06/20 01:57:40;;;;;;;10.77;9.77;;;18.60;99.90;;;;;;5068096;28;20052;-84
2021/06/20 02:00:14;;;;;;;11.43;9.98;;;18.60;99.90;;;;;;5068209;28;20057;-85
2021/06/20 02:02:44;;;;;;;11.30;9.85;;;18.70;99.90;;;;;;5049993;28;20512;-84
2021/06/20 02:05:13;;;;;;;12.48;10.13;;;18.70;99.90;;;;;;5066970;28;20064;-84
2021/06/20 02:07:42;;;;;;;12.20;9.65;;;18.80;99.90;;;;;;5050719;28;20045;-85
2021/06/20 02:10:12;;;;;;;15.02;10.45;;;18.90;99.90;;;;;;5045618;28;20045;-84
2021/06/20 02:12:40;;;;;;;12.00;10.65;;;18.80;99.90;;;;;;5046866;28;20059;-84
2021/06/20 02:15:10;;;;;;;16.70;9.38;;;18.60;99.90;;;;;;5046115;28;20055;-84
2021/06/20 02:17:40;;;;;;;9.95;9.07;;;18.50;99.90;;;;;;5067070;28;20061;-84
2021/06/20 02:20:13;;;;;;;11.95;9.98;;;18.50;99.90;;;;;;5065915;28;20512;-84
2021/06/20 02:22:42;;;;;;;11.68;10.25;;;18.50;99.90;;;;;;5048394;28;20265;-85
2021/06/20 02:25:13;;;;;;;11.30;9.90;;;18.40;99.90;;;;;;5050426;28;20059;-84
2021/06/20 02:27:44;;;;;;;11.75;10.55;;;18.50;99.90;;;;;;5033195;28;20048;-84
2021/06/20 02:30:13;;;;;;;10.32;9.32;;;18.50;99.90;;;;;;5050939;28;20052;-84
2021/06/20 02:32:41;;;;;;;9.98;9.02;;;18.50;99.90;;;;;;5037086;28;20064;-84
2021/06/20 02:35:12;;;;;;;10.18;9.15;;;18.50;99.90;;;;;;5052788;28;20527;-84
2021/06/20 02:37:44;;;;;;;9.98;9.00;;;18.40;99.90;;;;;;5069044;28;20056;-84
2021/06/20 02:40:12;;;;;;;19.93;10.57;;;18.30;99.90;;;;;;5070261;28;20079;-83
2021/06/20 02:42:41;;;;;;;9.80;8.80;;;18.20;99.90;;;;;;5071398;28;20286;-84
2021/06/20 02:45:12;;;;;;;11.52;10.27;;;18.20;99.90;;;;;;5036647;28;20052;-83
2021/06/20 02:47:40;;;;;;;11.77;9.27;;;18.20;99.90;;;;;;5036450;28;20389;-84
2021/06/20 02:50:09;;;;;;;13.85;10.40;;;18.30;99.90;;;;;;5051488;28;20044;-84
2021/06/20 02:52:37;;;;;;;15.80;9.75;;;18.50;99.90;;;;;;5069980;28;20045;-83
2021/06/20 02:55:05;;;;;;;11.88;9.80;;;18.50;99.90;;;;;;5069157;28;20047;-84
2021/06/20 02:57:33;;;;;;;11.90;10.73;;;18.60;99.90;;;;;;5032918;28;20064;-84
2021/06/20 03:00:04;;;;;;;10.43;9.48;;;18.50;99.90;;;;;;5049103;28;20064;-84
2021/06/20 03:02:32;;;;;;;11.23;10.10;;;18.40;99.90;;;;;;5049269;28;20037;-84
2021/06/20 03:05:01;;;;;;;10.02;9.05;;;18.40;99.90;;;;;;5049505;28;20060;-84
2021/06/20 03:07:29;;;;;;;10.77;9.75;;;18.20;99.90;;;;;;5031237;28;20048;-84
2021/06/20 03:09:57;;;;;;;12.30;8.95;;;18.10;99.90;;;;;;5031244;28;20486;-83
2021/06/20 03:12:26;;;;;;;16.48;9.90;;;18.00;99.90;;;;;;5051144;28;20067;-83
2021/06/20 03:14:54;;;;;;;9.52;8.63;;;18.00;99.90;;;;;;5032402;28;20041;-84
2021/06/20 03:17:22;;;;;;;11.95;10.68;;;18.00;99.90;;;;;;5068786;28;20559;-83
2021/06/20 03:19:50;;;;;;;10.27;9.35;;;18.00;99.90;;;;;;5070378;28;20047;-83
2021/06/20 03:22:18;;;;;;;10.90;9.90;;;18.00;99.90;;;;;;5068256;28;20040;-83
2021/06/20 03:24:48;;;;;;;11.98;9.40;;;18.10;99.90;;;;;;5070813;28;20059;-83
2021/06/20 03:27:18;;;;;;;8.73;8.02;;;18.10;99.90;;;;;;5070558;28;20045;-84
2021/06/20 03:29:46;;;;;;;11.48;10.27;;;18.10;99.90;;;;;;5047044;28;20394;-84
2021/06/20 03:32:16;;;;;;;9.82;8.90;;;18.00;99.90;;;;;;5049536;28;20060;-84
2021/06/20 03:34:45;;;;;;;10.25;9.35;;;18.00;99.90;;;;;;5050040;28;20064;-84
2021/06/20 03:37:13;;;;;;;9.30;7.97;;;18.00;99.90;;;;;;5058581;28;20059;-84
2021/06/20 03:39:43;;;;;;;11.48;10.25;;;18.10;99.90;;;;;;5052187;28;20063;-84
2021/06/20 03:42:11;;;;;;;11.00;9.07;;;17.90;99.90;;;;;;5068375;28;20055;-83
2021/06/20 03:44:41;;;;;;;12.23;9.13;;;17.90;99.90;;;;;;5070391;28;20509;-84
2021/06/20 03:47:09;;;;;;;10.75;8.63;;;17.90;99.90;;;;;;5063238;28;20051;-83
2021/06/20 03:49:37;;;;;;;9.82;8.73;;;17.90;99.90;;;;;;5051028;28;20374;-84
2021/06/20 03:52:05;;;;;;;15.10;10.20;;;17.90;99.90;;;;;;5067757;28;20486;-84
2021/06/20 03:54:33;;;;;;;11.55;9.50;;;17.90;99.90;;;;;;5068978;28;20490;-84
2021/06/20 03:57:01;;;;;;;13.77;9.38;;;17.90;99.90;;;;;;5068825;28;20059;-84
2021/06/20 03:59:32;;;;;;;9.00;8.15;;;18.00;99.90;;;;;;5069872;28;20041;-84
2021/06/20 04:02:00;;;;;;;11.85;9.98;;;18.00;99.90;;;;;;5049435;28;20037;-84
2021/06/20 04:04:28;;;;;;;10.77;8.70;;;17.80;99.90;;;;;;5035512;28;20044;-84
2021/06/20 04:06:56;;;;;;;11.05;9.57;;;17.80;99.90;;;;;;5045969;28;20426;-87
2021/06/20 04:09:25;;;;;;;10.18;8.75;;;17.90;99.90;;;;;;5015934;28;20405;-86
2021/06/20 04:11:53;;;;;;;10.60;8.98;;;17.90;99.90;;;;;;5014195;28;20072;-85
2021/06/20 04:14:21;;;;;;;16.88;10.15;;;17.80;99.90;;;;;;5048463;28;20037;-85
2021/06/20 04:16:49;;;;;;;16.10;10.23;;;17.80;99.90;;;;;;5044665;28;20049;-86
2021/06/20 04:19:17;;;;;;;14.93;9.80;;;17.90;99.90;;;;;;5051163;28;20044;-86
2021/06/20 04:21:45;;;;;;;16.05;8.85;;;18.00;99.90;;;;;;5032529;28;20052;-85
2021/06/20 04:24:12;;;;;;;10.68;9.18;;;18.10;99.90;;;;;;5019071;28;20053;-85
2021/06/20 04:26:43;;;;;;;16.80;9.82;;;18.10;99.90;;;;;;5050247;28;20048;-86
2021/06/20 04:29:11;;;;;;;11.85;9.80;;;18.20;99.90;;;;;;5051433;28;20056;-87
2021/06/20 04:31:39;;;;;;;15.50;9.45;;;18.20;99.90;;;;;;5033102;28;20040;-87
2021/06/20 04:34:08;;;;;;;15.85;10.30;;;18.20;99.90;;;;;;5034685;28;20428;-86
2021/06/20 04:36:36;;;;;;;19.65;9.50;;;18.20;99.90;;;;;;5016458;28;20040;-86
2021/06/20 04:39:09;;;;;;;9.82;8.82;;;18.40;99.90;;;;;;5034421;28;20578;-87
2021/06/20 04:41:40;;;;;;;13.27;9.88;;;18.50;99.90;;;;;;5016644;28;20516;-87
2021/06/20 04:44:42;;;;;;;12.07;10.25;;;18.60;99.90;;;;;;5051584;28;20481;-83
2021/06/20 04:46:56;;;;;;;10.23;8.82;;;18.80;99.90;;;;;;5068348;28;20250;-83
2021/06/20 04:49:24;;;;;;;15.95;9.30;;;18.80;99.90;;;;;;5051198;28;20056;-85
2021/06/20 04:51:52;;;;;;;15.88;9.30;;;18.80;99.90;;;;;;5046858;28;20132;-84
2021/06/20 04:54:20;;;;;;;10.88;9.00;;;18.90;99.90;;;;;;5034080;28;20060;-85
2021/06/20 04:56:50;;;;;;;10.57;9.30;;;19.10;99.90;;;;;;5033817;28;20059;-87
2021/06/20 04:59:18;;;;;;;15.10;12.20;;;19.30;99.90;;;;;;5033769;28;20041;-87
2021/06/20 05:01:46;;;;;;;10.85;9.85;;;19.40;99.90;;;;;;5049335;28;20040;-86
2021/06/20 05:04:14;;;;;;;11.15;10.05;;;19.60;99.90;;;;;;5050488;28;20063;-86
2021/06/20 05:06:43;;;;;;;13.93;10.77;;;19.70;99.90;;;;;;5047568;28;20512;-87
2021/06/20 05:09:12;;;;;;;15.55;9.90;;;19.80;99.90;;;;;;5050472;28;20060;-86
2021/06/20 05:11:40;;;;;;;11.48;9.57;;;20.00;99.90;;;;;;5032643;28;20041;-87
2021/06/20 05:14:08;;;;;;;14.57;11.05;;;20.20;99.90;;;;;;5033794;28;20043;-87
2021/06/20 05:16:36;;;;;;;11.77;9.25;;;20.30;99.90;;;;;;5033541;28;20055;-86
2021/06/20 05:19:05;;;;;;;15.95;11.27;;;20.50;99.90;;;;;;5033123;28;20056;-88
2021/06/20 05:21:34;;;;;;;15.82;10.40;;;20.50;99.90;;;;;;5031453;28;20044;-89
2021/06/20 05:24:03;;;;;;;13.82;9.40;;;20.60;99.90;;;;;;5050985;28;20047;-88
2021/06/20 05:26:35;;;;;;;14.70;10.55;;;20.70;99.90;;;;;;5034113;28;20055;-88
2021/06/20 05:29:03;;;;;;;20.92;11.18;;;20.90;99.90;;;;;;5037716;28;20055;-88
2021/06/20 05:31:31;;;;;;;11.45;10.35;;;21.20;99.90;;;;;;5046485;28;20519;-88
2021/06/20 05:33:59;;;;;;;14.35;10.23;;;21.30;99.90;;;;;;5067206;28;20028;-88
2021/06/20 05:36:27;;;;;;;15.50;10.43;;;21.30;99.90;;;;;;5047670;28;20475;-88
2021/06/20 05:38:55;;;;;;;10.60;9.50;;;21.40;99.90;;;;;;5049421;28;20055;-89
2021/06/20 05:41:23;;;;;;;10.25;9.25;;;21.60;99.90;;;;;;5048984;28;20067;-85
2021/06/20 05:43:53;;;;;;;16.10;10.00;;;21.80;99.90;;;;;;5066579;28;20441;-84
2021/06/20 05:46:22;;;;;;;13.80;10.38;;;22.00;99.90;;;;;;5049422;28;20047;-84
2021/06/20 05:48:50;;;;;;;10.48;9.35;;;22.20;99.90;;;;;;5050131;28;20405;-85
2021/06/20 05:51:19;;;;;;;12.27;9.85;;;22.30;99.90;;;;;;5047744;28;20055;-82
2021/06/20 05:53:46;;;;;;;13.60;9.98;;;22.50;99.90;;;;;;5066979;28;20507;-83
2021/06/20 05:56:14;;;;;;;24.80;9.93;;;22.60;99.90;;;;;;5068029;28;20064;-81
2021/06/20 05:58:42;;;;;;;13.20;10.65;;;22.50;99.90;;;;;;5049432;28;20519;-82
2021/06/20 06:01:10;;;;;;;16.90;10.15;;;22.50;99.90;;;;;;5067313;28;20056;-84
2021/06/20 06:03:38;;;;;;;17.80;9.45;;;22.40;99.90;;;;;;5051246;28;20044;-83
2021/06/20 06:06:06;;;;;;;12.27;9.50;;;22.40;99.90;;;;;;5066517;28;20049;-81
2021/06/20 06:08:34;;;;;;;10.30;9.35;;;22.30;99.90;;;;;;5052120;28;20061;-83
2021/06/20 06:11:02;;;;;;;9.63;8.73;;;22.30;99.90;;;;;;5048366;28;20048;-81
2021/06/20 06:13:31;;;;;;;11.98;8.68;;;22.40;99.90;;;;;;5051312;28;20045;-83
2021/06/20 06:15:59;;;;;;;12.20;9.05;;;22.40;99.90;;;;;;5053552;28;20044;-84
2021/06/20 06:18:27;;;;;;;15.60;11.10;;;22.50;99.90;;;;;;5052776;28;20045;-82
2021/06/20 06:20:55;;;;;;;11.18;9.88;;;22.60;99.90;;;;;;5052066;28;20067;-81
2021/06/20 06:23:23;;;;;;;12.90;9.13;;;22.70;99.90;;;;;;5053141;28;20787;-82
2021/06/20 06:25:50;;;;;;;15.77;9.20;;;22.80;99.90;;;;;;5070249;28;20040;-82
2021/06/20 06:28:18;;;;;;;12.55;9.90;;;22.90;99.90;;;;;;5053931;28;20052;-81
2021/06/20 06:30:46;;;;;;;23.98;10.38;;;22.90;99.90;;;;;;5070333;28;20052;-86
2021/06/20 06:33:14;;;;;;;10.40;9.38;;;22.90;99.90;;;;;;5070926;28;20060;-83
2021/06/20 06:35:42;;;;;;;10.75;9.63;;;22.90;99.90;;;;;;5051725;28;20367;-81
2021/06/20 06:38:13;;;;;;;15.18;11.15;;;22.90;99.90;;;;;;5051729;28;20036;-85
2021/06/20 06:40:41;;;;;;;11.50;8.82;;;22.80;99.90;;;;;;5036546;28;20055;-83
2021/06/20 06:43:09;;;;;;;11.60;9.60;;;22.90;99.90;;;;;;5070274;28;20457;-83
2021/06/20 06:45:39;;;;;;;12.43;10.23;;;22.90;99.90;;;;;;5051183;28;20047;-81
2021/06/20 06:48:08;;;;;;;10.48;9.38;;;22.90;99.90;;;;;;5036301;28;20044;-80
2021/06/20 06:50:36;;;;;;;13.73;9.95;;;22.90;99.90;;;;;;5069246;28;20401;-82
2021/06/20 06:53:04;;;;;;;12.60;9.60;;;23.00;99.90;;;;;;5035392;28;20051;-79
2021/06/20 06:55:34;;;;;;;18.77;11.45;;;23.00;99.90;;;;;;5065827;28;20052;-80
2021/06/20 06:58:03;;;;;;;10.38;9.38;;;22.90;99.90;;;;;;5050918;28;20045;-82
2021/06/20 07:00:31;;;;;;;12.85;8.38;;;22.90;99.90;;;;;;5031991;28;20072;-81
2021/06/20 07:02:59;;;;;;;10.77;9.13;;;22.90;99.90;;;;;;5048157;28;20502;-81
2021/06/20 07:05:27;;;;;;;12.68;8.57;;;22.90;99.90;;;;;;5048550;28;20219;-80
2021/06/20 07:07:54;;;;;;;11.85;8.63;;;22.90;99.80;;;;;;5014633;28;20056;-81
2021/06/20 07:10:23;;;;;;;13.55;10.82;;;22.90;99.90;;;;;;5048561;28;20478;-79
2021/06/20 07:12:51;;;;;;;14.90;9.73;;;22.90;99.90;;;;;;5032749;28;20045;-79
2021/06/20 07:15:19;;;;;;;8.48;7.68;;;22.90;99.90;;;;;;5049913;28;20425;-76
2021/06/20 07:17:48;;;;;;;14.82;8.13;;;22.90;99.90;;;;;;5070164;28;20150;-77
2021/06/20 07:20:16;;;;;;;10.80;9.10;;;23.00;99.90;;;;;;5051780;28;20405;-74
2021/06/20 07:22:46;;;;;;;15.82;8.52;;;23.00;99.90;;;;;;5068975;28;20041;-73
2021/06/20 07:25:22;;;;;;;10.18;8.60;;;23.00;99.30;;;;;;5070440;28;20052;-74
2021/06/20 07:27:51;;;;;;;13.98;8.00;;;23.10;99.90;;;;;;5065601;28;20045;-73
2021/06/20 07:30:21;;;;;;;11.07;6.60;;;23.10;99.80;;;;;;5050262;28;20033;-75
2021/06/20 07:32:50;;;;;;;8.18;7.00;;;23.10;99.30;;;;;;5051682;28;20052;-77
2021/06/20 07:35:18;;;;;;;9.20;6.93;;;23.10;99.70;;;;;;5056392;28;20046;-79
2021/06/20 07:37:46;;;;;;;9.43;8.00;;;23.10;99.30;;;;;;5069060;28;20064;-78
2021/06/20 07:40:15;;;;;;;13.52;7.13;;;23.20;99.90;;;;;;5036627;28;20078;-79
2021/06/20 07:42:47;;;;;;;12.10;7.10;;;23.10;99.70;;;;;;5053131;28;20385;-75
2021/06/20 07:45:16;;;;;;;15.80;8.57;;;23.20;99.60;;;;;;5071463;28;20057;-80
2021/06/20 07:47:45;;;;;;;27.10;8.32;;;23.20;99.60;;;;;;5052879;28;20055;-81
2021/06/20 07:50:13;;;;;;;25.73;8.93;;;23.20;98.30;;;;;;5070390;28;20051;-78
2021/06/20 07:52:41;;;;;;;11.77;7.75;;;23.20;99.20;;;;;;5070045;28;20057;-78
2021/06/20 07:55:10;;;;;;;15.18;8.07;;;23.20;99.20;;;;;;5070924;28;20048;-78
2021/06/20 07:57:38;;;;;;;29.42;9.65;;;23.20;99.00;;;;;;5052948;28;20072;-78
2021/06/20 08:00:10;;;;;;;11.65;8.02;;;23.20;99.70;;;;;;5070542;28;20134;-78
2021/06/20 08:02:42;;;;;;;16.25;6.80;;;23.20;99.70;;;;;;5070576;28;20041;-80
2021/06/20 08:05:11;;;;;;;17.23;7.95;;;23.20;98.80;;;;;;5070971;28;20045;-81
2021/06/20 08:07:39;;;;;;;18.98;7.43;;;23.10;98.90;;;;;;5054176;28;20037;-77
2021/06/20 08:10:08;;;;;;;14.98;7.18;;;23.10;99.00;;;;;;5050147;28;20037;-80
2021/06/20 08:12:36;;;;;;;15.15;7.38;;;23.10;99.60;;;;;;5051112;28;20449;-80
2021/06/20 08:15:04;;;;;;;20.35;9.13;;;23.20;99.40;;;;;;5050681;28;20390;-81
2021/06/20 08:17:32;;;;;;;17.80;8.13;;;23.20;98.80;;;;;;5052839;28;20059;-85
2021/06/20 08:20:01;;;;;;;24.15;8.63;;;23.10;98.80;;;;;;5037624;28;20504;-78
2021/06/20 08:22:29;;;;;;;23.85;6.97;;;23.10;99.40;;;;;;5070326;28;20505;-87
2021/06/20 08:24:57;;;;;;;17.20;8.18;;;23.10;98.80;;;;;;5036738;28;20716;-80
2021/06/20 08:27:25;;;;;;;13.10;6.57;;;23.10;99.30;;;;;;5068502;28;20055;-77
2021/06/20 08:29:54;;;;;;;12.80;5.82;;;23.10;99.30;;;;;;5070548;28;20060;-77
2021/06/20 08:32:23;;;;;;;16.95;7.15;;;23.10;99.90;;;;;;5071089;28;20075;-78
2021/06/20 08:34:52;;;;;;;16.95;8.27;;;23.10;99.60;;;;;;5070611;28;20661;-78
2021/06/20 08:37:19;;;;;;;18.13;8.88;;;23.20;99.60;;;;;;5069748;28;20060;-77
2021/06/20 08:39:47;;;;;;;29.50;9.10;;;23.20;99.70;;;;;;5070596;28;20044;-78
2021/06/20 08:42:15;;;;;;;18.55;8.07;;;23.30;98.90;;;;;;5070483;28;20505;-78
2021/06/20 08:44:43;;;;;;;14.13;7.72;;;23.40;99.50;;;;;;5071059;28;20053;-78
2021/06/20 08:47:13;;;;;;;9.93;7.25;;;23.40;98.90;;;;;;5069960;28;20059;-78
2021/06/20 08:49:41;;;;;;;18.90;6.35;;;23.40;99.00;;;;;;5070458;28;20504;-79
2021/06/20 08:52:08;;;;;;;22.27;7.45;;;23.50;98.60;;;;;;5069977;28;20059;-78
2021/06/20 08:54:37;;;;;;;14.48;6.88;;;23.60;99.20;;;;;;5070262;28;20049;-78
2021/06/20 08:57:06;;;;;;;24.40;7.60;;;23.70;98.80;;;;;;5053852;28;20041;-78
2021/06/20 08:59:34;;;;;;;21.55;9.40;;;23.70;97.40;;;;;;5050496;28;20037;-80
2021/06/20 09:02:02;;;;;;;21.17;7.47;;;23.70;99.50;;;;;;5057444;28;20041;-79
2021/06/20 09:04:34;;;;;;;18.88;7.97;;;23.80;98.30;;;;;;5052792;28;20056;-80
2021/06/20 09:07:04;;;;;;;16.05;7.03;;;24.00;98.50;;;;;;5069609;28;20056;-79
2021/06/20 09:09:36;;;;;;;32.70;8.40;;;24.00;97.00;;;;;;5068979;28;20063;-78
2021/06/20 09:12:11;;;;;;;20.60;6.30;;;23.90;99.50;;;;;;5070329;28;20063;-78
2021/06/20 09:14:44;;;;;;;15.45;6.85;;;23.90;98.40;;;;;;5070088;28;20044;-79
2021/06/20 09:17:23;;;;;;;13.73;8.32;;;23.90;98.20;;;;;;5051910;28;20053;-79
2021/06/20 09:20:01;;;;;;;18.42;7.38;;;24.00;96.60;;;;;;5069792;28;20412;-78
2021/06/20 09:22:30;;;;;;;16.40;6.22;;;24.10;96.70;;;;;;5069457;28;20052;-78
2021/06/20 09:25:23;;;;;;;15.02;5.75;;;24.10;96.60;;;;;;5052633;28;20444;-78
2021/06/20 09:27:59;;;;;;;22.75;7.97;;;24.10;95.50;;;;;;5066528;28;20052;-78
2021/06/20 09:30:30;;;;;;;19.45;5.80;;;24.30;96.70;;;;;;5047219;28;20049;-79
2021/06/20 09:33:00;;;;;;;10.15;4.57;;;24.20;95.20;;;;;;5048674;28;20532;-77
2021/06/20 09:35:55;;;;;;;11.88;7.18;;;24.20;96.50;;;;;;5047875;28;20055;-79
2021/06/20 09:38:39;;;;;;;12.10;3.78;;;24.20;95.10;;;;;;5068044;28;20044;-78
2021/06/20 09:41:12;;;;;;;16.95;6.20;;;24.40;96.30;;;;;;5072707;28;20067;-77
2021/06/20 09:43:52;;;;;;;14.13;5.10;;;24.40;95.10;;;;;;5072886;28;20040;-78
2021/06/20 09:46:20;;;;;;;20.23;6.07;;;24.40;95.30;;;;;;5053956;28;20052;-79
2021/06/20 09:48:49;;;;;;;6.15;4.45;;;24.50;94.60;;;;;;5073429;28;20515;-80
2021/06/20 09:51:20;;;;;;;14.30;4.47;;;24.60;93.80;;;;;;5069740;28;20516;-76
2021/06/20 09:53:50;;;;;;;9.43;4.18;;;24.60;96.40;;;;;;5072504;28;20045;-77
2021/06/20 09:56:30;;;;;;;16.83;5.82;;;24.70;95.00;;;;;;5072401;28;20064;-79
2021/06/20 09:58:58;;;;;;;25.67;6.30;;;24.60;93.80;;;;;;5071311;28;20040;-77
2021/06/20 10:01:28;;;;;;;20.90;5.28;;;24.60;95.30;;;;;;5072155;28;20337;-76
2021/06/20 10:03:56;;;;;;;32.17;7.18;;;24.60;94.60;;;;;;5072164;28;20040;-76
2021/06/20 10:06:24;;;;;;;17.02;5.32;;;24.70;93.90;;;;;;5065543;28;20072;-76
2021/06/20 10:08:52;;;;;;;15.40;5.72;;;24.80;92.80;;;;;;5052683;28;20075;-76
2021/06/20 10:11:21;;;;;;;14.32;4.45;;;24.80;93.40;;;;;;5070183;28;20066;-77
2021/06/20 10:13:49;;;;;;;21.00;7.18;;;24.90;95.00;;;;;;5071173;28;20072;-76
2021/06/20 10:16:20;;;;;;;28.88;5.63;;;25.00;94.80;;;;;;5072146;28;20065;-76
2021/06/20 10:18:59;;;;;;;11.63;4.95;;;25.20;94.60;;;;;;5070453;28;20052;-77
2021/06/20 10:21:39;;;;;;;12.18;4.22;;;25.50;94.20;;;;;;5050173;28;20063;-76
2021/06/20 10:24:19;;;;;;;9.20;4.95;;;25.40;91.40;;;;;;5049510;28;20172;-77
2021/06/20 10:27:01;;;;;;;12.23;4.18;;;25.30;94.00;;;;;;5052001;28;20053;-77
2021/06/20 10:29:35;;;;;;;27.10;7.82;;;25.40;93.90;;;;;;5051841;28;20060;-76
2021/06/20 10:32:21;;;;;;;18.25;5.53;;;25.50;93.10;;;;;;5051881;28;20414;-77
2021/06/20 10:34:59;;;;;;;10.80;4.72;;;25.60;93.60;;;;;;5051195;28;20433;-77
2021/06/20 10:37:32;;;;;;;20.63;6.32;;;25.70;93.40;;;;;;5062075;28;20067;-77
2021/06/20 10:40:01;;;;;;;14.10;4.13;;;25.80;93.70;;;;;;5069570;28;20397;-78
2021/06/20 10:42:38;;;;;;;15.10;4.50;;;25.80;92.50;;;;;;5071646;28;20049;-80
2021/06/20 10:45:08;;;;;;;18.92;5.70;;;25.80;92.70;;;;;;5068906;28;20052;-80
2021/06/20 10:47:40;;;;;;;8.60;4.28;;;25.80;92.00;;;;;;5053923;28;20056;-78
2021/06/20 10:50:11;;;;;;;11.10;4.88;;;25.70;92.90;;;;;;5053820;28;20098;-79
2021/06/20 10:52:41;;;;;;;12.93;5.32;;;25.80;93.20;;;;;;5072342;28;20497;-79
2021/06/20 10:55:15;;;;;;;20.80;5.47;;;25.90;92.70;;;;;;5071950;28;20044;-78
2021/06/20 10:57:55;;;;;;;24.95;5.13;;;26.00;91.80;;;;;;5053058;28;20045;-77
2021/06/20 11:00:29;;;;;;;12.30;4.67;;;26.00;91.50;;;;;;5052593;28;20056;-77
2021/06/20 11:03:18;;;;;;;9.50;4.05;;;25.80;91.30;;;;;;5052172;28;20056;-76
2021/06/20 11:06:14;;;;;;;15.93;5.25;;;25.70;92.20;;;;;;5070027;28;20064;-78
2021/06/20 11:09:01;;;;;;;15.82;5.38;;;25.90;93.00;;;;;;5070258;28;20075;-79
2021/06/20 11:11:32;;;;;;;18.65;6.63;;;26.10;93.00;;;;;;5037548;28;20410;-77
2021/06/20 11:13:59;;;;;;;19.08;4.80;;;26.20;92.80;;;;;;5038092;28;20044;-78
2021/06/20 11:16:28;;;;;;;15.35;4.57;;;26.20;93.70;;;;;;5072456;28;20057;-77
2021/06/20 11:19:24;;;;;;;16.98;5.03;;;26.30;90.80;;;;;;5054484;28;20052;-77
2021/06/20 11:22:06;;;;;;;12.23;3.75;;;26.20;90.70;;;;;;5071383;28;20049;-77
2021/06/20 11:24:36;;;;;;;14.57;3.65;;;26.20;90.70;;;;;;5067539;28;20052;-77
2021/06/20 11:27:13;;;;;;;13.38;5.68;;;26.30;90.30;;;;;;5070522;28;20374;-77
2021/06/20 11:29:51;;;;;;;11.23;4.10;;;26.30;90.30;;;;;;5070030;28;20068;-77
2021/06/20 11:32:21;;;;;;;22.42;6.45;;;26.40;90.70;;;;;;5072236;28;20518;-77
2021/06/20 11:34:56;;;;;;;14.40;6.43;;;26.50;91.60;;;;;;5071624;28;20128;-77
2021/06/20 11:37:30;;;;;;;14.65;5.43;;;26.40;90.70;;;;;;5071291;28;20067;-77
2021/06/20 11:40:20;;;;;;;18.33;4.85;;;26.50;90.40;;;;;;5053377;28;20060;-77
2021/06/20 11:42:54;;;;;;;21.92;5.47;;;26.60;90.00;;;;;;5054276;28;20048;-77
2021/06/20 11:45:26;;;;;;;12.60;5.00;;;26.50;91.20;;;;;;5072514;28;20060;-78
2021/06/20 11:47:57;;;;;;;15.40;5.70;;;26.40;91.20;;;;;;5071409;28;20500;-77
2021/06/20 11:50:27;;;;;;;;;;;26.30;91.20;;;;;;5072201;28;20053;-77
2021/06/20 11:52:58;;;;;;;24.58;6.10;;;26.30;91.20;;;;;;5053599;28;19924;-78
2021/06/20 11:55:28;;;;;;;18.40;6.18;;;26.40;91.40;;;;;;5071601;28;20045;-77
2021/06/20 11:58:07;;;;;;;15.85;6.32;;;26.30;90.70;;;;;;5071066;28;20422;-77
2021/06/20 12:00:37;;;;;;;18.17;6.60;;;26.30;90.50;;;;;;5071666;28;20048;-77
2021/06/20 12:03:11;;;;;;;17.05;9.75;;;26.30;91.80;;;;;;5070920;28;20048;-76
2021/06/20 12:06:02;;;;;;;11.25;5.63;;;26.20;92.40;;;;;;5071194;28;20056;-78
2021/06/20 12:08:34;;;;;;;16.55;5.75;;;26.10;93.50;;;;;;5051926;28;20075;-79
2021/06/20 12:11:03;;;;;;;16.92;7.50;;;26.30;91.50;;;;;;5050937;28;20041;-81
2021/06/20 12:13:41;;;;;;;15.73;5.10;;;26.40;90.90;;;;;;5033644;28;20057;-81
2021/06/20 12:16:09;;;;;;;17.65;4.38;;;26.20;90.40;;;;;;5059332;28;20072;-81
2021/06/20 12:18:37;;;;;;;18.50;5.85;;;26.00;90.00;;;;;;5071245;28;20075;-81
2021/06/20 12:21:06;;;;;;;16.35;4.85;;;25.90;90.70;;;;;;5070931;28;20064;-81
2021/06/20 12:23:35;;;;;;;22.35;4.53;;;26.00;90.80;;;;;;5071004;28;20417;-81
2021/06/20 12:26:03;;;;;;;10.20;6.93;;;26.10;91.60;;;;;;5071102;28;20405;-81
2021/06/20 12:28:31;;;;;;;10.70;5.10;;;26.10;91.40;;;;;;5053595;28;20052;-82
2021/06/20 12:30:59;;;;;;;22.65;6.20;;;26.20;90.70;;;;;;5070985;28;20056;-81
2021/06/20 12:33:28;;;;;;;18.75;5.35;;;26.10;91.40;;;;;;5071390;28;20052;-81
2021/06/20 12:36:01;;;;;;;23.73;5.88;;;26.10;90.60;;;;;;5069749;28;20052;-80
2021/06/20 12:38:33;;;;;;;16.45;5.43;;;26.00;91.30;;;;;;5051173;28;20406;-82
2021/06/20 12:41:02;;;;;;;17.13;5.68;;;25.90;90.20;;;;;;5071061;28;20098;-84
2021/06/20 12:43:30;;;;;;;14.68;4.88;;;25.90;91.10;;;;;;5052492;28;20036;-82
2021/06/20 12:46:04;;;;;;;23.30;4.78;;;25.80;93.30;;;;;;5069430;28;20048;-80
2021/06/20 12:48:37;;;;;;;12.88;5.65;;;25.80;92.40;;;;;;5070743;28;20059;-80
2021/06/20 12:51:09;;;;;;;14.68;5.75;;;25.70;91.80;;;;;;5069182;28;20056;-80